createdAt,value
2022-10-19T00:00:05.956Z,18.50
2022-10-19T00:00:27.020Z,19.50
2022-10-19T00:00:48.078Z,18.30
2022-10-19T00:01:09.128Z,16.30
2022-10-19T00:01:30.360Z,17.40
2022-10-19T00:01:51.499Z,18.00
2022-10-19T00:02:12.551Z,16.40
2022-10-19T00:02:33.670Z,19.40
2022-10-19T00:02:54.712Z,19.20
2022-10-19T00:03:18.269Z,20.80
2022-10-19T00:03:42.849Z,16.50
2022-10-19T00:04:07.841Z,16.90
2022-10-19T00:04:30.857Z,19.60
2022-10-19T00:04:51.923Z,20.00
2022-10-19T00:05:12.974Z,17.80
2022-10-19T00:05:34.029Z,17.10
2022-10-19T00:05:55.080Z,17.30
2022-10-19T00:06:16.137Z,17.80
2022-10-19T00:06:37.329Z,17.40
2022-10-19T00:06:58.367Z,17.40
2022-10-19T00:07:19.431Z,17.30
2022-10-19T00:07:40.471Z,19.50
2022-10-19T00:08:01.519Z,18.20
2022-10-19T00:08:22.569Z,20.10
2022-10-19T00:08:43.620Z,19.90
2022-10-19T00:09:04.682Z,19.50
2022-10-19T00:09:25.734Z,19.20
2022-10-19T00:09:46.800Z,18.80
2022-10-19T00:10:07.839Z,21.20
2022-10-19T00:10:28.896Z,20.20
2022-10-19T00:10:49.964Z,18.40
2022-10-19T00:11:11.007Z,18.80
2022-10-19T00:11:32.056Z,22.30
2022-10-19T00:12:14.124Z,21.50
2022-10-19T00:12:35.246Z,21.30
2022-10-19T00:12:56.305Z,20.30
2022-10-19T00:13:17.355Z,20.40
2022-10-19T00:13:38.407Z,18.80
2022-10-19T00:13:59.481Z,20.60
2022-10-19T00:14:20.530Z,20.50
2022-10-19T00:14:41.581Z,20.50
2022-10-19T00:15:02.629Z,20.50
2022-10-19T00:15:23.670Z,20.00
2022-10-19T00:15:44.725Z,20.20
2022-10-19T00:16:06.839Z,19.30
2022-10-19T00:16:30.219Z,20.80
2022-10-19T00:16:51.428Z,21.30
2022-10-19T00:17:12.482Z,21.60
2022-10-19T00:17:33.787Z,23.90
2022-10-19T00:17:55.038Z,21.30
2022-10-19T00:18:16.098Z,20.20
2022-10-19T00:18:37.139Z,20.20
2022-10-19T00:18:58.198Z,21.60
2022-10-19T00:19:19.253Z,21.30
2022-10-19T00:19:40.319Z,21.70
2022-10-19T00:20:01.363Z,20.40
2022-10-19T00:20:22.411Z,19.90
2022-10-19T00:20:43.470Z,20.50
2022-10-19T00:21:04.521Z,20.60
2022-10-19T00:21:25.571Z,20.00
2022-10-19T00:21:46.678Z,19.50
2022-10-19T00:22:10.323Z,20.30
2022-10-19T00:22:34.935Z,19.90
2022-10-19T00:22:56.040Z,22.00
2022-10-19T00:23:17.103Z,20.50
2022-10-19T00:23:38.172Z,19.20
2022-10-19T00:23:59.224Z,18.90
2022-10-19T00:24:20.311Z,18.80
2022-10-19T00:24:41.373Z,18.10
2022-10-19T00:25:02.432Z,18.80
2022-10-19T00:25:23.491Z,20.50
2022-10-19T00:25:44.549Z,20.30
2022-10-19T00:26:05.603Z,18.40
2022-10-19T00:26:26.655Z,20.30
2022-10-19T00:26:47.708Z,20.00
2022-10-19T00:27:08.903Z,20.50
2022-10-19T00:27:29.990Z,20.40
2022-10-19T00:27:51.033Z,19.50
2022-10-19T00:28:12.086Z,19.40
2022-10-19T00:28:33.206Z,20.80
2022-10-19T00:28:54.355Z,20.00
2022-10-19T00:29:15.577Z,20.50
2022-10-19T00:29:36.704Z,22.40
2022-10-19T00:29:57.762Z,20.50
2022-10-19T00:30:18.817Z,20.70
2022-10-19T00:30:39.981Z,21.50
2022-10-19T00:31:01.024Z,19.70
2022-10-19T00:31:22.098Z,19.30
2022-10-19T00:31:43.136Z,18.80
2022-10-19T00:32:04.185Z,20.90
2022-10-19T00:32:25.268Z,19.60
2022-10-19T00:32:46.317Z,21.30
2022-10-19T00:33:07.374Z,20.90
2022-10-19T00:33:28.433Z,21.20
2022-10-19T00:33:49.499Z,22.20
2022-10-19T00:34:10.572Z,21.70
2022-10-19T00:34:31.618Z,22.40
2022-10-19T00:34:52.677Z,23.00
2022-10-19T00:35:13.709Z,22.80
2022-10-19T00:35:34.761Z,23.10
2022-10-19T00:35:55.819Z,20.80
2022-10-19T00:36:16.876Z,22.50
2022-10-19T00:36:37.937Z,26.00
2022-10-19T00:36:59.008Z,26.00
2022-10-19T00:37:20.052Z,27.70
2022-10-19T00:37:41.320Z,24.60
2022-10-19T00:38:02.400Z,24.70
2022-10-19T00:38:23.451Z,26.90
2022-10-19T00:38:44.511Z,24.60
2022-10-19T00:39:05.566Z,25.40
2022-10-19T00:39:26.625Z,24.50
2022-10-19T00:39:47.743Z,24.80
2022-10-19T00:40:08.774Z,26.10
2022-10-19T00:40:29.826Z,26.60
2022-10-19T00:40:50.883Z,25.10
2022-10-19T00:41:11.960Z,24.00
2022-10-19T00:41:32.987Z,26.10
2022-10-19T00:41:54.045Z,27.50
2022-10-19T00:42:15.099Z,26.80
2022-10-19T00:42:36.370Z,28.70
2022-10-19T00:42:57.390Z,25.40
2022-10-19T00:43:18.438Z,25.30
2022-10-19T00:43:39.493Z,25.70
2022-10-19T00:44:00.550Z,24.60
2022-10-19T00:44:21.607Z,27.30
2022-10-19T00:44:42.647Z,25.80
2022-10-19T00:45:03.709Z,26.90
2022-10-19T00:45:24.764Z,28.40
2022-10-19T00:45:45.809Z,27.70
2022-10-19T00:46:06.855Z,27.70
2022-10-19T00:46:27.907Z,26.80
2022-10-19T00:46:48.967Z,27.00
2022-10-19T00:47:10.023Z,29.20
2022-10-19T00:47:31.080Z,27.10
2022-10-19T00:47:52.137Z,28.70
2022-10-19T00:48:13.186Z,29.10
2022-10-19T00:48:34.235Z,25.40
2022-10-19T00:48:55.313Z,29.00
2022-10-19T00:49:16.334Z,27.30
2022-10-19T00:49:37.390Z,30.60
2022-10-19T00:49:58.452Z,31.90
2022-10-19T00:50:19.486Z,28.00
2022-10-19T00:50:40.540Z,27.20
2022-10-19T00:51:01.590Z,29.50
2022-10-19T00:51:22.642Z,29.90
2022-10-19T00:51:43.697Z,29.40
2022-10-19T00:52:04.753Z,29.20
2022-10-19T00:52:25.800Z,28.10
2022-10-19T00:52:46.981Z,27.60
2022-10-19T00:53:08.039Z,29.90
2022-10-19T00:53:29.094Z,28.60
2022-10-19T00:53:50.144Z,27.00
2022-10-19T00:54:11.215Z,27.30
2022-10-19T00:54:32.249Z,26.10
2022-10-19T00:54:53.304Z,29.00
2022-10-19T00:55:14.381Z,28.00
2022-10-19T00:55:35.427Z,28.90
2022-10-19T00:55:56.478Z,27.60
2022-10-19T00:56:17.538Z,25.30
2022-10-19T00:56:38.592Z,28.70
2022-10-19T00:56:59.651Z,28.30
2022-10-19T00:57:20.704Z,28.90
2022-10-19T00:57:41.958Z,30.00
2022-10-19T00:58:03.003Z,27.20
2022-10-19T00:58:24.059Z,28.00
2022-10-19T00:58:45.111Z,26.60
2022-10-19T00:59:06.172Z,26.50
2022-10-19T00:59:27.222Z,27.40
2022-10-19T00:59:48.284Z,25.90
2022-10-19T01:00:09.386Z,24.60
2022-10-19T01:00:30.407Z,26.30
2022-10-19T01:00:51.522Z,26.70
2022-10-19T01:01:12.603Z,27.60
2022-10-19T01:01:33.691Z,25.70
2022-10-19T01:01:54.736Z,28.70
2022-10-19T01:02:15.793Z,28.20
2022-10-19T01:02:37.082Z,27.60
2022-10-19T01:02:58.309Z,29.00
2022-10-19T01:03:19.363Z,28.60
2022-10-19T01:03:40.412Z,28.50
2022-10-19T01:04:01.456Z,26.00
2022-10-19T01:04:22.530Z,29.40
2022-10-19T01:04:43.567Z,29.30
2022-10-19T01:05:04.640Z,31.10
2022-10-19T01:05:25.664Z,31.00
2022-10-19T01:05:46.718Z,30.00
2022-10-19T01:06:07.767Z,30.50
2022-10-19T01:06:28.828Z,29.50
2022-10-19T01:07:10.924Z,29.70
2022-10-19T01:07:32.322Z,28.10
2022-10-19T01:07:53.801Z,27.70
2022-10-19T01:08:14.861Z,31.90
2022-10-19T01:08:35.900Z,29.40
2022-10-19T01:08:56.957Z,31.30
2022-10-19T01:09:18.000Z,29.50
2022-10-19T01:09:39.057Z,29.80
2022-10-19T01:10:00.115Z,29.40
2022-10-19T01:10:21.171Z,30.20
2022-10-19T01:10:42.229Z,31.20
2022-10-19T01:11:03.294Z,32.10
2022-10-19T01:11:24.340Z,31.70
2022-10-19T01:11:45.402Z,29.50
2022-10-19T01:12:06.465Z,29.40
2022-10-19T01:12:27.511Z,32.60
2022-10-19T01:12:48.564Z,32.90
2022-10-19T01:13:09.647Z,30.70
2022-10-19T01:13:30.698Z,28.20
2022-10-19T01:13:51.752Z,29.40
2022-10-19T01:14:12.797Z,28.90
2022-10-19T01:14:33.847Z,27.90
2022-10-19T01:14:54.907Z,31.90
2022-10-19T01:15:15.959Z,31.50
2022-10-19T01:15:37.014Z,29.90
2022-10-19T01:15:58.073Z,31.00
2022-10-19T01:16:19.123Z,29.10
2022-10-19T01:16:40.179Z,30.60
2022-10-19T01:17:01.240Z,31.50
2022-10-19T01:17:22.296Z,30.70
2022-10-19T01:17:43.359Z,30.80
2022-10-19T01:18:04.536Z,30.90
2022-10-19T01:18:25.585Z,31.50
2022-10-19T01:18:46.646Z,29.80
2022-10-19T01:19:07.708Z,29.20
2022-10-19T01:19:28.774Z,26.40
2022-10-19T01:19:49.830Z,28.80
2022-10-19T01:20:10.908Z,31.10
2022-10-19T01:20:31.979Z,32.20
2022-10-19T01:20:53.003Z,29.00
2022-10-19T01:21:14.059Z,31.00
2022-10-19T01:21:35.116Z,31.40
2022-10-19T01:21:56.168Z,30.70
2022-10-19T01:22:17.235Z,29.60
2022-10-19T01:22:38.279Z,29.40
2022-10-19T01:22:59.331Z,28.60
2022-10-19T01:23:20.532Z,32.20
2022-10-19T01:23:41.585Z,30.20
2022-10-19T01:24:02.640Z,33.60
2022-10-19T01:24:23.701Z,35.50
2022-10-19T01:24:44.797Z,35.20
2022-10-19T01:25:05.832Z,33.40
2022-10-19T01:25:26.902Z,30.70
2022-10-19T01:25:47.957Z,30.20
2022-10-19T01:26:09.026Z,29.70
2022-10-19T01:26:30.086Z,31.90
2022-10-19T01:26:51.146Z,31.80
2022-10-19T01:27:12.173Z,31.50
2022-10-19T01:27:33.672Z,31.10
2022-10-19T01:27:54.875Z,31.80
2022-10-19T01:28:15.926Z,32.90
2022-10-19T01:28:37.060Z,31.90
2022-10-19T01:28:58.157Z,30.40
2022-10-19T01:29:19.183Z,29.40
2022-10-19T01:29:40.242Z,30.40
2022-10-19T01:30:01.288Z,31.30
2022-10-19T01:30:22.344Z,31.50
2022-10-19T01:30:43.399Z,30.60
2022-10-19T01:31:04.464Z,30.50
2022-10-19T01:31:25.534Z,31.90
2022-10-19T01:31:46.588Z,31.40
2022-10-19T01:32:07.618Z,29.80
2022-10-19T01:32:28.671Z,32.10
2022-10-19T01:32:49.743Z,31.40
2022-10-19T01:33:10.784Z,31.20
2022-10-19T01:33:31.859Z,30.80
2022-10-19T01:33:53.021Z,32.20
2022-10-19T01:34:14.078Z,30.50
2022-10-19T01:34:35.132Z,33.90
2022-10-19T01:34:56.194Z,33.70
2022-10-19T01:35:17.282Z,31.50
2022-10-19T01:35:38.310Z,31.20
2022-10-19T01:35:59.366Z,30.80
2022-10-19T01:36:20.416Z,32.00
2022-10-19T01:36:41.464Z,31.80
2022-10-19T01:37:02.515Z,32.00
2022-10-19T01:37:23.572Z,33.10
2022-10-19T01:37:44.620Z,34.80
2022-10-19T01:38:05.669Z,34.10
2022-10-19T01:38:26.730Z,32.80
2022-10-19T01:38:47.790Z,32.20
2022-10-19T01:39:08.868Z,32.20
2022-10-19T01:39:29.921Z,31.70
2022-10-19T01:39:50.973Z,32.60
2022-10-19T01:40:12.024Z,33.60
2022-10-19T01:40:33.075Z,33.30
2022-10-19T01:40:54.128Z,33.60
2022-10-19T01:41:15.178Z,33.00
2022-10-19T01:41:36.229Z,31.60
2022-10-19T01:41:57.284Z,34.20
2022-10-19T01:42:18.331Z,36.40
2022-10-19T01:42:39.392Z,34.10
2022-10-19T01:43:00.453Z,32.60
2022-10-19T01:43:21.502Z,32.00
2022-10-19T01:43:42.551Z,31.70
2022-10-19T01:44:03.833Z,31.20
2022-10-19T01:44:24.851Z,31.60
2022-10-19T01:44:45.899Z,32.10
2022-10-19T01:45:06.986Z,30.90
2022-10-19T01:45:28.014Z,32.70
2022-10-19T01:45:49.088Z,34.70
2022-10-19T01:46:10.149Z,30.90
2022-10-19T01:46:31.226Z,32.90
2022-10-19T01:46:52.277Z,33.40
2022-10-19T01:47:13.338Z,31.50
2022-10-19T01:47:34.659Z,36.20
2022-10-19T01:47:55.895Z,36.20
2022-10-19T01:48:16.951Z,34.00
2022-10-19T01:48:37.993Z,35.70
2022-10-19T01:48:59.050Z,33.50
2022-10-19T01:49:20.130Z,34.70
2022-10-19T01:49:41.186Z,35.00
2022-10-19T01:50:02.272Z,32.20
2022-10-19T01:50:23.326Z,32.50
2022-10-19T01:50:44.362Z,33.50
2022-10-19T01:51:05.431Z,31.40
2022-10-19T01:51:26.478Z,34.50
2022-10-19T01:51:47.572Z,34.80
2022-10-19T01:52:08.606Z,34.60
2022-10-19T01:52:29.680Z,36.00
2022-10-19T01:52:50.735Z,31.00
2022-10-19T01:53:11.797Z,34.30
2022-10-19T01:53:32.848Z,35.10
2022-10-19T01:53:53.905Z,32.30
2022-10-19T01:54:15.007Z,33.80
2022-10-19T01:54:36.052Z,36.20
2022-10-19T01:54:57.111Z,36.10
2022-10-19T01:55:18.169Z,34.20
2022-10-19T01:55:39.215Z,34.80
2022-10-19T01:56:00.257Z,33.10
2022-10-19T01:56:21.308Z,34.30
2022-10-19T01:56:42.359Z,34.70
2022-10-19T01:57:03.408Z,37.00
2022-10-19T01:57:24.469Z,35.30
2022-10-19T01:57:45.517Z,31.90
2022-10-19T01:58:08.424Z,31.60
2022-10-19T01:58:30.637Z,35.00
2022-10-19T01:58:51.700Z,33.40
2022-10-19T01:59:12.748Z,33.60
2022-10-19T01:59:33.942Z,36.00
2022-10-19T01:59:54.990Z,34.70
2022-10-19T02:00:16.048Z,33.60
2022-10-19T02:00:37.233Z,34.90
2022-10-19T02:00:58.418Z,35.60
2022-10-19T02:01:19.511Z,33.90
2022-10-19T02:01:40.559Z,30.80
2022-10-19T02:02:01.611Z,35.40
2022-10-19T02:02:22.662Z,33.10
2022-10-19T02:02:43.710Z,32.70
2022-10-19T02:03:04.767Z,34.90
2022-10-19T02:03:25.829Z,35.70
2022-10-19T02:03:47.463Z,35.80
2022-10-19T02:04:08.500Z,38.90
2022-10-19T02:04:29.558Z,35.10
2022-10-19T02:04:50.642Z,35.60
2022-10-19T02:05:11.700Z,34.90
2022-10-19T02:05:32.768Z,32.50
2022-10-19T02:05:53.801Z,34.90
2022-10-19T02:06:14.864Z,36.50
2022-10-19T02:06:35.918Z,33.80
2022-10-19T02:06:56.975Z,33.80
2022-10-19T02:07:18.051Z,33.70
2022-10-19T02:07:39.093Z,33.50
2022-10-19T02:08:00.161Z,35.20
2022-10-19T02:08:21.220Z,35.20
2022-10-19T02:08:42.279Z,34.90
2022-10-19T02:09:03.321Z,32.70
2022-10-19T02:09:24.373Z,30.00
2022-10-19T02:09:45.455Z,32.40
2022-10-19T02:10:06.548Z,32.90
2022-10-19T02:10:27.576Z,35.90
2022-10-19T02:10:48.622Z,36.50
2022-10-19T02:11:09.683Z,40.10
2022-10-19T02:11:30.733Z,35.90
2022-10-19T02:11:54.660Z,32.90
2022-10-19T02:12:18.762Z,34.80
2022-10-19T02:12:39.824Z,33.50
2022-10-19T02:13:01.019Z,30.10
2022-10-19T02:13:22.072Z,34.40
2022-10-19T02:13:43.118Z,37.20
2022-10-19T02:14:04.165Z,37.60
2022-10-19T02:14:25.231Z,36.20
2022-10-19T02:14:46.304Z,33.50
2022-10-19T02:15:07.364Z,34.30
2022-10-19T02:15:28.424Z,36.20
2022-10-19T02:15:49.479Z,33.70
2022-10-19T02:16:10.539Z,31.90
2022-10-19T02:16:31.586Z,33.80
2022-10-19T02:16:52.638Z,35.10
2022-10-19T02:17:13.691Z,32.90
2022-10-19T02:17:34.740Z,34.30
2022-10-19T02:17:55.811Z,34.60
2022-10-19T02:18:16.857Z,34.60
2022-10-19T02:18:37.906Z,38.50
2022-10-19T02:18:58.962Z,35.10
2022-10-19T02:19:20.139Z,34.90
2022-10-19T02:19:41.175Z,35.90
2022-10-19T02:20:02.258Z,35.40
2022-10-19T02:20:23.293Z,34.60
2022-10-19T02:20:44.368Z,36.90
2022-10-19T02:21:05.439Z,36.70
2022-10-19T02:21:26.592Z,33.00
2022-10-19T02:21:47.619Z,34.80
2022-10-19T02:22:08.675Z,34.60
2022-10-19T02:22:29.728Z,33.00
2022-10-19T02:22:50.785Z,37.50
2022-10-19T02:23:11.832Z,36.60
2022-10-19T02:23:32.898Z,39.10
2022-10-19T02:23:54.318Z,36.10
2022-10-19T02:24:15.448Z,36.30
2022-10-19T02:24:36.505Z,31.00
2022-10-19T02:24:57.575Z,35.20
2022-10-19T02:25:18.653Z,37.40
2022-10-19T02:25:39.702Z,36.60
2022-10-19T02:26:00.800Z,35.30
2022-10-19T02:26:21.870Z,35.40
2022-10-19T02:26:42.922Z,34.50
2022-10-19T02:27:03.970Z,34.10
2022-10-19T02:27:25.038Z,35.80
2022-10-19T02:27:46.076Z,34.90
2022-10-19T02:28:07.127Z,34.70
2022-10-19T02:28:28.206Z,36.50
2022-10-19T02:28:49.240Z,38.50
2022-10-19T02:29:10.285Z,35.80
2022-10-19T02:29:31.357Z,34.00
2022-10-19T02:29:52.425Z,36.40
2022-10-19T02:30:13.483Z,38.10
2022-10-19T02:30:34.528Z,37.80
2022-10-19T02:30:55.578Z,36.70
2022-10-19T02:31:16.626Z,35.30
2022-10-19T02:31:37.681Z,39.10
2022-10-19T02:31:58.737Z,38.30
2022-10-19T02:32:19.799Z,36.70
2022-10-19T02:32:40.821Z,35.10
2022-10-19T02:33:01.875Z,35.50
2022-10-19T02:33:22.927Z,35.30
2022-10-19T02:33:43.992Z,36.80
2022-10-19T02:34:05.040Z,36.50
2022-10-19T02:34:26.111Z,38.40
2022-10-19T02:34:47.156Z,37.90
2022-10-19T02:35:08.339Z,39.10
2022-10-19T02:35:29.398Z,35.30
2022-10-19T02:35:50.466Z,38.90
2022-10-19T02:36:11.507Z,37.20
2022-10-19T02:36:32.558Z,35.70
2022-10-19T02:36:53.620Z,35.90
2022-10-19T02:37:14.719Z,33.30
2022-10-19T02:37:56.733Z,36.50
2022-10-19T02:38:17.786Z,35.30
2022-10-19T02:38:38.849Z,34.20
2022-10-19T02:38:59.904Z,36.70
2022-10-19T02:39:20.946Z,36.60
2022-10-19T02:39:42.008Z,36.40
2022-10-19T02:40:03.063Z,38.20
2022-10-19T02:40:24.114Z,36.80
2022-10-19T02:40:45.185Z,35.60
2022-10-19T02:41:06.216Z,33.70
2022-10-19T02:41:27.274Z,32.20
2022-10-19T02:41:48.353Z,33.70
2022-10-19T02:42:09.411Z,36.60
2022-10-19T02:42:30.580Z,37.60
2022-10-19T02:42:51.699Z,34.30
2022-10-19T02:43:12.749Z,33.40
2022-10-19T02:43:33.825Z,36.40
2022-10-19T02:43:54.860Z,37.40
2022-10-19T02:44:15.915Z,38.60
2022-10-19T02:44:36.966Z,37.60
2022-10-19T02:44:58.040Z,36.80
2022-10-19T02:45:19.092Z,36.30
2022-10-19T02:45:40.144Z,33.40
2022-10-19T02:46:01.203Z,34.80
2022-10-19T02:46:22.282Z,34.90
2022-10-19T02:46:43.341Z,35.60
2022-10-19T02:47:04.381Z,32.90
2022-10-19T02:47:25.450Z,34.60
2022-10-19T02:47:46.497Z,35.70
2022-10-19T02:48:07.542Z,35.80
2022-10-19T02:48:28.602Z,34.20
2022-10-19T02:48:49.663Z,34.40
2022-10-19T02:49:10.716Z,33.20
2022-10-19T02:49:31.755Z,34.10
2022-10-19T02:49:52.804Z,36.00
2022-10-19T02:50:13.882Z,37.00
2022-10-19T02:50:34.951Z,38.70
2022-10-19T02:50:56.027Z,36.50
2022-10-19T02:51:17.057Z,34.70
2022-10-19T02:51:38.114Z,34.10
2022-10-19T02:51:59.156Z,33.10
2022-10-19T02:52:20.213Z,33.60
2022-10-19T02:52:41.260Z,34.50
2022-10-19T02:53:02.333Z,34.40
2022-10-19T02:53:23.368Z,35.80
2022-10-19T02:53:44.419Z,36.90
2022-10-19T02:54:05.607Z,36.50
2022-10-19T02:54:26.683Z,36.90
2022-10-19T02:54:47.739Z,33.70
2022-10-19T02:55:08.816Z,35.70
2022-10-19T02:55:29.935Z,38.10
2022-10-19T02:55:51.008Z,38.70
2022-10-19T02:56:12.066Z,34.60
2022-10-19T02:56:33.118Z,32.30
2022-10-19T02:56:54.170Z,35.80
2022-10-19T02:57:15.212Z,37.50
2022-10-19T02:57:36.766Z,35.20
2022-10-19T02:57:57.993Z,36.20
2022-10-19T02:58:19.044Z,35.70
2022-10-19T02:58:40.096Z,34.00
2022-10-19T02:59:01.154Z,36.10
2022-10-19T02:59:22.215Z,35.20
2022-10-19T02:59:43.263Z,34.70
2022-10-19T03:00:04.319Z,35.60
2022-10-19T03:00:25.398Z,36.60
2022-10-19T03:00:46.511Z,38.30
2022-10-19T03:01:07.598Z,37.30
2022-10-19T03:01:28.609Z,38.30
2022-10-19T03:01:49.663Z,38.40
2022-10-19T03:02:10.709Z,32.90
2022-10-19T03:02:31.758Z,33.30
2022-10-19T03:02:52.829Z,35.10
2022-10-19T03:03:13.899Z,34.60
2022-10-19T03:03:34.957Z,33.70
2022-10-19T03:03:56.004Z,35.20
2022-10-19T03:04:17.067Z,34.80
2022-10-19T03:04:38.225Z,36.10
2022-10-19T03:04:59.277Z,37.30
2022-10-19T03:05:20.347Z,33.60
2022-10-19T03:05:41.400Z,31.30
2022-10-19T03:06:02.471Z,34.90
2022-10-19T03:06:23.496Z,34.50
2022-10-19T03:06:44.579Z,33.40
2022-10-19T03:07:05.612Z,34.70
2022-10-19T03:07:26.672Z,36.10
2022-10-19T03:07:47.723Z,38.10
2022-10-19T03:08:08.776Z,32.40
2022-10-19T03:08:29.812Z,32.40
2022-10-19T03:08:50.883Z,36.40
2022-10-19T03:09:11.922Z,34.90
2022-10-19T03:09:32.977Z,35.80
2022-10-19T03:09:54.037Z,33.90
2022-10-19T03:10:15.224Z,33.80
2022-10-19T03:10:36.284Z,33.20
2022-10-19T03:10:57.326Z,35.40
2022-10-19T03:11:18.374Z,37.20
2022-10-19T03:11:39.416Z,35.70
2022-10-19T03:12:00.472Z,33.80
2022-10-19T03:12:21.523Z,33.20
2022-10-19T03:12:42.576Z,31.60
2022-10-19T03:13:03.636Z,32.20
2022-10-19T03:13:24.674Z,35.10
2022-10-19T03:14:06.729Z,36.30
2022-10-19T03:14:27.762Z,35.40
2022-10-19T03:14:48.820Z,36.00
2022-10-19T03:15:09.871Z,35.40
2022-10-19T03:15:30.957Z,34.40
2022-10-19T03:15:51.993Z,36.10
2022-10-19T03:16:13.051Z,33.20
2022-10-19T03:16:34.098Z,31.40
2022-10-19T03:16:55.143Z,30.60
2022-10-19T03:17:16.195Z,35.00
2022-10-19T03:17:37.486Z,36.20
2022-10-19T03:17:58.567Z,32.30
2022-10-19T03:18:19.614Z,31.40
2022-10-19T03:18:40.665Z,29.80
2022-10-19T03:19:01.720Z,31.20
2022-10-19T03:19:22.775Z,35.20
2022-10-19T03:19:43.838Z,29.80
2022-10-19T03:20:04.890Z,32.90
2022-10-19T03:20:26.045Z,34.20
2022-10-19T03:20:47.094Z,33.90
2022-10-19T03:21:08.175Z,37.30
2022-10-19T03:21:29.208Z,34.90
2022-10-19T03:21:50.292Z,35.10
2022-10-19T03:22:11.357Z,39.40
2022-10-19T03:22:32.401Z,39.60
2022-10-19T03:23:14.475Z,30.60
2022-10-19T03:23:35.519Z,34.90
2022-10-19T03:23:56.569Z,38.00
2022-10-19T03:24:17.617Z,38.80
2022-10-19T03:24:38.674Z,37.30
2022-10-19T03:24:59.727Z,34.70
2022-10-19T03:25:20.788Z,38.70
2022-10-19T03:25:41.846Z,36.10
2022-10-19T03:26:02.898Z,34.60
2022-10-19T03:26:23.949Z,33.10
2022-10-19T03:26:45.011Z,33.20
2022-10-19T03:27:06.061Z,33.20
2022-10-19T03:27:27.120Z,36.90
2022-10-19T03:27:48.161Z,34.30
2022-10-19T03:28:09.215Z,33.50
2022-10-19T03:28:30.290Z,37.10
2022-10-19T03:28:51.331Z,36.00
2022-10-19T03:29:12.361Z,36.10
2022-10-19T03:29:33.409Z,38.00
2022-10-19T03:29:54.464Z,33.20
2022-10-19T03:30:15.513Z,34.20
2022-10-19T03:30:36.564Z,33.80
2022-10-19T03:30:57.629Z,32.10
2022-10-19T03:31:18.685Z,33.10
2022-10-19T03:31:39.775Z,35.50
2022-10-19T03:32:00.789Z,36.70
2022-10-19T03:32:21.843Z,33.00
2022-10-19T03:32:42.886Z,35.50
2022-10-19T03:33:03.937Z,40.70
2022-10-19T03:33:46.986Z,38.50
2022-10-19T03:34:08.034Z,39.60
2022-10-19T03:34:29.083Z,38.90
2022-10-19T03:34:50.132Z,35.20
2022-10-19T03:35:11.193Z,33.10
2022-10-19T03:35:32.255Z,31.30
2022-10-19T03:35:53.303Z,35.50
2022-10-19T03:36:14.396Z,33.10
2022-10-19T03:36:35.407Z,34.30
2022-10-19T03:36:56.594Z,33.10
2022-10-19T03:37:17.664Z,35.00
2022-10-19T03:37:38.715Z,32.70
2022-10-19T03:37:59.765Z,35.00
2022-10-19T03:38:20.822Z,34.60
2022-10-19T03:38:41.874Z,36.30
2022-10-19T03:39:02.931Z,33.40
2022-10-19T03:39:23.977Z,33.20
2022-10-19T03:39:45.027Z,35.60
2022-10-19T03:40:06.106Z,35.70
2022-10-19T03:40:27.146Z,36.10
2022-10-19T03:40:48.195Z,31.90
2022-10-19T03:41:09.246Z,34.30
2022-10-19T03:41:30.296Z,34.60
2022-10-19T03:41:51.351Z,37.50
2022-10-19T03:42:12.513Z,36.00
2022-10-19T03:42:33.576Z,40.50
2022-10-19T03:42:54.614Z,37.20
2022-10-19T03:43:15.668Z,39.10
2022-10-19T03:43:36.725Z,35.60
2022-10-19T03:43:57.843Z,35.90
2022-10-19T03:44:18.879Z,37.00
2022-10-19T03:44:39.936Z,36.40
2022-10-19T03:45:00.982Z,35.50
2022-10-19T03:45:22.032Z,37.00
2022-10-19T03:45:43.106Z,35.70
2022-10-19T03:46:04.153Z,36.60
2022-10-19T03:46:25.215Z,34.60
2022-10-19T03:46:46.266Z,34.60
2022-10-19T03:47:07.333Z,33.10
2022-10-19T03:47:28.381Z,36.60
2022-10-19T03:47:49.433Z,32.60
2022-10-19T03:48:10.516Z,37.30
2022-10-19T03:48:31.593Z,36.50
2022-10-19T03:48:52.650Z,35.00
2022-10-19T03:49:13.697Z,35.80
2022-10-19T03:49:38.056Z,31.10
2022-10-19T03:50:01.712Z,38.60
2022-10-19T03:50:22.756Z,35.80
2022-10-19T03:50:43.836Z,33.20
2022-10-19T03:51:04.904Z,33.80
2022-10-19T03:51:25.984Z,34.80
2022-10-19T03:51:47.007Z,33.80
2022-10-19T03:52:08.071Z,35.30
2022-10-19T03:52:29.121Z,33.80
2022-10-19T03:52:50.207Z,33.20
2022-10-19T03:53:11.240Z,36.70
2022-10-19T03:53:33.230Z,38.00
2022-10-19T03:53:54.422Z,37.40
2022-10-19T03:54:15.475Z,32.90
2022-10-19T03:54:36.528Z,32.00
2022-10-19T03:54:57.569Z,32.30
2022-10-19T03:55:18.624Z,36.00
2022-10-19T03:55:39.673Z,36.10
2022-10-19T03:56:00.846Z,33.30
2022-10-19T03:56:21.900Z,33.00
2022-10-19T03:56:42.954Z,34.60
2022-10-19T03:57:04.024Z,36.30
2022-10-19T03:57:25.084Z,39.60
2022-10-19T03:57:46.131Z,37.60
2022-10-19T03:58:07.194Z,37.50
2022-10-19T03:58:28.270Z,35.40
2022-10-19T03:58:49.322Z,37.50
2022-10-19T03:59:10.379Z,37.80
2022-10-19T03:59:31.436Z,38.50
2022-10-19T03:59:52.485Z,35.00
2022-10-19T04:00:13.536Z,37.40
2022-10-19T04:00:34.587Z,37.80
2022-10-19T04:00:55.697Z,37.20
2022-10-19T04:01:16.890Z,34.30
2022-10-19T04:01:37.954Z,34.10
2022-10-19T04:01:59.014Z,35.30
2022-10-19T04:02:20.068Z,40.20
2022-10-19T04:02:41.112Z,37.90
2022-10-19T04:03:02.161Z,37.40
2022-10-19T04:03:23.250Z,35.90
2022-10-19T04:03:44.292Z,34.20
2022-10-19T04:04:05.346Z,31.90
2022-10-19T04:04:26.394Z,35.70
2022-10-19T04:04:47.474Z,32.40
2022-10-19T04:05:08.519Z,33.20
2022-10-19T04:05:29.567Z,34.40
2022-10-19T04:05:50.618Z,33.90
2022-10-19T04:06:11.674Z,33.50
2022-10-19T04:06:32.859Z,38.20
2022-10-19T04:06:54.020Z,36.80
2022-10-19T04:07:15.071Z,34.70
2022-10-19T04:07:36.285Z,37.40
2022-10-19T04:07:57.411Z,36.10
2022-10-19T04:08:18.464Z,35.00
2022-10-19T04:08:39.526Z,35.60
2022-10-19T04:09:00.581Z,39.60
2022-10-19T04:09:21.640Z,36.90
2022-10-19T04:09:42.695Z,36.60
2022-10-19T04:10:03.765Z,36.30
2022-10-19T04:10:24.794Z,35.20
2022-10-19T04:10:45.842Z,35.50
2022-10-19T04:11:06.897Z,37.00
2022-10-19T04:11:27.941Z,37.60
2022-10-19T04:11:49.194Z,34.70
2022-10-19T04:12:10.255Z,37.80
2022-10-19T04:12:31.295Z,37.90
2022-10-19T04:12:53.880Z,34.30
2022-10-19T04:13:15.192Z,34.00
2022-10-19T04:13:36.248Z,35.20
2022-10-19T04:13:57.337Z,36.10
2022-10-19T04:14:26.834Z,34.20
2022-10-19T04:14:56.737Z,36.90
2022-10-19T04:15:12.306Z,40.30
2022-10-19T04:15:33.349Z,36.10
2022-10-19T04:15:54.509Z,35.60
2022-10-19T04:16:15.555Z,34.90
2022-10-19T04:16:36.602Z,35.30
2022-10-19T04:16:57.696Z,35.20
2022-10-19T04:17:18.751Z,32.20
2022-10-19T04:17:39.810Z,33.40
2022-10-19T04:18:00.857Z,37.20
2022-10-19T04:18:21.913Z,34.30
2022-10-19T04:18:43.062Z,36.80
2022-10-19T04:19:04.101Z,33.00
2022-10-19T04:19:25.157Z,33.10
2022-10-19T04:19:46.327Z,37.30
2022-10-19T04:20:07.389Z,37.90
2022-10-19T04:20:28.431Z,33.50
2022-10-19T04:20:49.494Z,34.10
2022-10-19T04:21:10.563Z,34.50
2022-10-19T04:21:31.614Z,34.70
2022-10-19T04:21:52.694Z,33.50
2022-10-19T04:22:13.742Z,36.80
2022-10-19T04:22:34.787Z,35.20
2022-10-19T04:22:55.843Z,34.20
2022-10-19T04:23:37.880Z,33.40
2022-10-19T04:23:58.947Z,33.20
2022-10-19T04:24:19.991Z,34.70
2022-10-19T04:24:41.037Z,34.80
2022-10-19T04:25:02.091Z,35.10
2022-10-19T04:25:23.172Z,35.60
2022-10-19T04:25:44.227Z,34.30
2022-10-19T04:26:05.389Z,34.40
2022-10-19T04:26:26.443Z,35.40
2022-10-19T04:26:47.499Z,35.50
2022-10-19T04:27:08.914Z,34.30
2022-10-19T04:27:29.935Z,33.70
2022-10-19T04:27:51.034Z,35.30
2022-10-19T04:28:12.115Z,33.90
2022-10-19T04:28:33.253Z,34.20
2022-10-19T04:28:54.404Z,34.70
2022-10-19T04:29:15.555Z,35.90
2022-10-19T04:29:36.645Z,38.50
2022-10-19T04:29:57.681Z,33.30
2022-10-19T04:30:18.781Z,32.80
2022-10-19T04:30:39.815Z,35.30
2022-10-19T04:31:00.974Z,36.40
2022-10-19T04:31:22.023Z,35.20
2022-10-19T04:31:43.097Z,37.70
2022-10-19T04:32:04.321Z,33.30
2022-10-19T04:32:25.411Z,33.40
2022-10-19T04:32:46.490Z,33.20
2022-10-19T04:33:07.530Z,33.10
2022-10-19T04:33:28.589Z,33.40
2022-10-19T04:33:49.647Z,31.30
2022-10-19T04:34:10.717Z,34.50
2022-10-19T04:34:34.187Z,37.70